Latest Coastal Weather Observations for Dennes Point

IDT60701

Issued at 9:52 pm EST Wednesday 22 May 2019 (issued every 10 minutes, with the page automatically refreshed every 10 minutes)

About coastal observations | Map of coastal stations | Coastal observations for TAS | Marine services | Other Formats
Station Details ID: 094255 Name: DENNES POINT Lat: -43.06 Lon: 147.36 Height: 5.67 m
Data from the previous 72 hours. | See also: Recent months at Dennes Point
Date/Time
EST
Wind Sea
Height
m
Swell Vis
km
Cloud Weather Temp
°C
Press
hPa
Rain since
9am
mm
Dir  Spd
kts
Gust
kts
Height
m
Period
s
Dir
22/09:30pm NNW 1 2 - - - - - - - 13.1 1023.4 0.0
22/09:00pm NW 4 6 - - - - - - - 12.7 1023.4 0.0
22/08:30pm WNW 8 10 - - - - - - - 13.5 1023.3 0.0
22/08:00pm WNW 9 12 - - - - - - - 13.9 1023.2 0.0
22/07:30pm NW 11 14 - - - - - - - 14.3 1023.2 0.0
22/07:00pm WSW 3 5 - - - - - - - 13.4 1023.3 0.0
22/06:30pm SW 5 8 - - - - - - - 14.4 1023.1 0.0
22/06:00pm CALM 0 1 - - - - - - - 14.3 1022.9 0.0
22/05:30pm WNW 5 7 - - - - - - - 14.7 1022.7 0.0
22/05:00pm W 10 14 - - - - - - - 15.2 1022.5 0.0
22/04:30pm WNW 10 15 - - - - - - - 15.6 1022.2 0.0
22/04:00pm W 9 14 - - - - - - - 16.0 1021.9 0.0
22/03:30pm WNW 11 15 - - - - - - - 16.7 1021.7 0.0
22/03:00pm W 9 13 - - - - - - - 17.0 1021.5 0.0
22/02:30pm W 11 15 - - - - - - - 17.0 1021.5 0.0
22/02:00pm W 16 21 - - - - - - - 17.1 1021.4 0.0
22/01:30pm WNW 17 23 - - - - - - - 16.8 1021.4 0.0
22/01:00pm W 12 17 - - - - - - - 17.4 1021.7 0.0
22/12:30pm W 9 13 - - - - - - - 17.1 1021.8 0.0
22/12:00pm W 10 16 - - - - - - - 16.6 1022.1 0.0
22/11:30am W 9 13 - - - - - - - 16.5 1022.5 0.0
22/11:00am W 6 10 - - - - - - - 16.3 1022.8 0.0
22/10:30am WNW 5 8 - - - - - - - 15.8 1022.7 0.0
22/10:00am NW 2 4 - - - - - - - 14.8 1022.6 0.0
22/09:30am NW 5 10 - - - - - - - 15.1 1022.5 0.0
22/09:00am NW 8 13 - - - - - - - 14.6 1022.6 0.0
22/08:30am NW 9 14 - - - - - - - 14.1 1022.1 0.0
22/08:00am NW 9 12 - - - - - - - 13.8 1021.9 0.0
22/07:30am WNW 7 11 - - - - - - - 13.4 1021.6 0.0
22/07:00am W 7 9 - - - - - - - 12.1 1021.0 0.0
22/06:30am WNW 8 13 - - - - - - - 13.5 1020.6 0.0
22/06:00am WNW 7 11 - - - - - - - 13.2 1020.3 0.0
22/05:30am W 11 17 - - - - - - - 13.9 1019.7 0.0
22/05:00am WNW 11 13 - - - - - - - 13.9 1019.2 0.0
22/04:30am WNW 14 21 - - - - - - - 14.7 1019.0 0.0
22/04:00am WNW 15 21 - - - - - - - 14.7 1018.7 0.0
22/03:30am WNW 14 22 - - - - - - - 14.8 1018.5 0.0
22/03:00am WNW 10 16 - - - - - - - 15.2 1018.4 0.0
22/02:30am NNE 3 5 - - - - - - - 14.0 1018.4 0.0
22/02:00am N 1 3 - - - - - - - 14.0 1018.3 0.0
22/01:30am NNE 7 9 - - - - - - - 14.3 1018.0 0.0
22/01:00am NW 9 12 - - - - - - - 15.0 1018.0 0.0
22/12:30am N 9 12 - - - - - - - 14.4 1017.9 0.0
22/12:00am N 8 10 - - - - - - - 14.3 1017.6 0.0
 
Date/Time
EST
Wind Sea
Height
m
Swell Vis
km
Cloud Weather Temp
°C
Press
hPa
Rain since
9am
mm
Dir  Spd
kts
Gust
kts
Height
m
Period
s
Dir
21/11:30pm N 6 8 - - - - - - - 14.4 1017.7 0.0
21/11:00pm N 9 11 - - - - - - - 14.5 1017.7 0.0
21/10:30pm NNW 7 9 - - - - - - - 14.4 1017.6 0.0
21/10:00pm NNW 7 11 - - - - - - - 14.4 1017.5 0.0
21/09:30pm NNW 8 12 - - - - - - - 14.8 1017.7 0.0
21/09:00pm NNW 8 10 - - - - - - - 14.9 1017.4 0.0
21/08:30pm NNW 7 11 - - - - - - - 15.4 1017.1 0.0
21/08:00pm NW 7 11 - - - - - - - 14.9 1017.0 0.0
21/07:30pm WNW 8 14 - - - - - - - 15.3 1016.9 0.0
21/07:00pm NW 8 12 - - - - - - - 15.8 1016.8 0.0
21/06:30pm NW 8 13 - - - - - - - 15.7 1016.6 0.0
21/06:00pm NW 13 17 - - - - - - - 15.6 1016.3 0.0
21/05:30pm NW 12 15 - - - - - - - 15.6 1015.8 0.0
21/05:00pm WNW 11 15 - - - - - - - 15.6 1015.8 0.0
21/04:30pm WNW 9 13 - - - - - - - 15.7 1015.5 0.0
21/04:00pm W 10 14 - - - - - - - 15.4 1015.1 0.0
21/03:30pm W 9 13 - - - - - - - 15.1 1014.9 0.0
21/03:00pm W 13 18 - - - - - - - 15.5 1014.8 0.0
21/02:30pm W 12 18 - - - - - - - 16.3 1014.2 0.0
21/02:00pm W 16 23 - - - - - - - 16.5 1013.9 0.0
21/01:30pm WNW 10 16 - - - - - - - 17.2 1013.9 0.0
21/01:00pm WNW 11 16 - - - - - - - 17.7 1013.9 0.0
21/12:30pm W 9 13 - - - - - - - 16.4 1013.9 0.0
21/12:00pm W 11 16 - - - - - - - 16.1 1014.0 0.0
21/11:30am WNW 4 6 - - - - - - - 16.1 1014.3 0.0
21/11:00am W 4 7 - - - - - - - 15.5 1014.4 0.0
21/10:30am NW 3 4 - - - - - - - 15.0 1014.2 0.0
21/10:00am NNW 4 6 - - - - - - - 14.6 1014.0 0.0
21/09:30am WNW 2 4 - - - - - - - 14.6 1013.8 0.0
21/09:00am W 1 2 - - - - - - - 14.4 1013.6 1.2
21/08:30am NNE 3 4 - - - - - - - 14.4 1013.5 1.2
21/08:00am NE 1 3 - - - - - - - 14.2 1013.1 1.2
21/07:30am W 6 10 - - - - - - - 14.4 1012.8 1.2
21/07:00am NW 3 6 - - - - - - - 15.2 1012.5 1.2
21/06:30am NW 5 8 - - - - - - - 14.7 1012.0 1.2
21/06:00am NW 8 14 - - - - - - - 14.9 1011.9 1.2
21/05:30am WNW 11 16 - - - - - - - 15.0 1011.6 1.2
21/05:00am NNW 7 14 - - - - - - - 14.3 1011.3 1.2
21/04:30am N 8 11 - - - - - - - 13.1 1011.0 1.2
21/04:00am N 8 11 - - - - - - - 12.8 1010.7 1.2
21/03:30am N 9 11 - - - - - - - 11.9 1010.8 1.2
21/03:00am N 11 13 - - - - - - - 11.5 1011.0 1.2
21/02:30am N 11 12 - - - - - - - 11.3 1011.0 1.2
21/02:00am NNE 12 13 - - - - - - - 11.9 1011.1 1.2
21/01:30am N 11 12 - - - - - - - 11.5 1011.2 1.2
21/01:00am N 11 12 - - - - - - - 11.9 1011.6 1.2
21/12:30am N 10 11 - - - - - - - 11.9 1011.9 1.2
21/12:00am NNE 11 13 - - - - - - - 12.5 1012.3 1.2
 
Date/Time
EST
Wind Sea
Height
m
Swell Vis
km
Cloud Weather Temp
°C
Press
hPa
Rain since
9am
mm
Dir  Spd
kts
Gust
kts
Height
m
Period
s
Dir
20/11:30pm NE 7 11 - - - - - - - 12.5 1012.5 1.2
20/11:00pm NNE 9 12 - - - - - - - 12.1 1012.7 1.2
20/10:30pm N 8 11 - - - - - - - 12.3 1012.9 1.2
20/10:00pm NNE 8 10 - - - - - - - 12.6 1013.2 1.2
20/09:30pm N 8 10 - - - - - - - 13.0 1013.6 1.2
20/09:00pm NNW 6 9 - - - - - - - 12.8 1013.7 1.2
20/08:30pm ENE 6 9 - - - - - - - 12.1 1013.5 1.2
20/08:00pm NNE 10 12 - - - - - - - 12.5 1013.8 1.2
20/07:30pm NNE 9 11 - - - - - - - 12.6 1013.7 0.8
20/07:00pm N 7 9 - - - - - - - 13.3 1013.9 0.8
20/06:30pm N 8 10 - - - - - - - 12.9 1014.0 0.8
20/06:00pm NNE 10 13 - - - - - - - 13.1 1014.1 0.8
20/05:30pm NNE 11 14 - - - - - - - 12.8 1014.2 0.8
20/05:00pm NE 12 14 - - - - - - - 12.5 1014.1 0.8
20/04:30pm NE 12 15 - - - - - - - 12.8 1014.9 0.8
20/04:00pm NNW 7 12 - - - - - - - 13.2 1015.0 0.8
20/03:30pm N 8 12 - - - - - - - 12.8 1015.2 0.8
20/03:00pm NNE 7 10 - - - - - - Recent precip. 13.1 1015.4 0.6
20/02:30pm N 2 5 - - - - - - - 13.4 1016.1 0.2
20/02:00pm S 1 3 - - - - - - - 13.6 1016.4 0.2
20/01:30pm NNE 6 7 - - - - - - - 13.3 1016.6 0.2
20/01:00pm NNE 5 7 - - - - - - - 13.9 1017.0 0.2
20/12:30pm N 8 10 - - - - - - - 12.9 1017.3 0.2
20/12:00pm NNE 6 8 - - - - - - - 12.9 1018.0 0.2
20/11:30am NE 8 12 - - - - - - - 11.9 1018.5 0.2
20/11:00am NNE 9 12 - - - - - - - 11.7 1019.4 0.2
20/10:30am NNE 9 11 - - - - - - - 11.5 1019.7 0.0
20/10:00am NE 9 10 - - - - - - - 11.1 1019.7 0.0
20/09:30am NNE 5 7 - - - - - - - 10.4 1020.1 0.0
20/09:00am ENE 1 2 - - - - - - - 9.2 1020.8 0.2
20/08:30am SW 3 4 - - - - - - - 8.4 1020.8 0.2
20/08:00am CALM 0 2 - - - - - - - 8.3 1021.2 0.2
20/07:30am SSW 4 4 - - - - - - - 7.4 1021.2 0.2
20/07:00am SSW 5 5 - - - - - - - 7.1 1021.2 0.2
20/06:30am SSW 4 4 - - - - - - - 7.0 1021.2 0.2
20/06:00am SSW 5 7 - - - - - - - 6.7 1021.4 0.2
20/05:30am SW 3 6 - - - - - - - 6.2 1021.5 0.2
20/05:00am SSW 4 6 - - - - - - - 6.8 1021.7 0.2
20/04:30am SSW 4 5 - - - - - - - 6.1 1021.8 0.2
20/04:00am SSW 5 6 - - - - - - - 6.3 1022.0 0.2
20/03:30am S 6 6 - - - - - - - 6.6 1022.2 0.2
20/03:00am SSW 5 6 - - - - - - - 6.7 1022.3 0.0
20/02:30am SW 5 5 - - - - - - - 7.1 1022.5 0.0
20/02:00am SSW 4 7 - - - - - - - 7.2 1022.6 0.0
20/01:30am NNW 4 7 - - - - - - - 9.0 1022.9 0.0
20/01:00am W 2 3 - - - - - - - 7.5 1023.3 0.0
20/12:30am S 4 5 - - - - - - - 7.8 1023.6 0.0
20/12:00am S 4 6 - - - - - - - 7.4 1023.9 0.0
 
Date/Time
EST
Wind Sea
Height
m
Swell Vis
km
Cloud Weather Temp
°C
Press
hPa
Rain since
9am
mm
Dir  Spd
kts
Gust
kts
Height
m
Period
s
Dir
19/11:30pm CALM 0 0 - - - - - - - 8.9 1024.2 0.0
19/11:00pm S 5 6 - - - - - - - 8.1 1024.7 0.0
19/10:30pm SSW 5 6 - - - - - - - 8.3 1024.9 0.0
19/10:00pm S 5 7 - - - - - - - 8.4 1025.3 0.0

Other formats

Comma delimited format used in spreadsheet applications
http://www.bom.gov.au/fwo/IDT60701/IDT60701.94988.axf

JavaScript Object Notation format (JSON) in row-major order
http://www.bom.gov.au/fwo/IDT60701/IDT60701.94988.json

Data quality

Most of these data are generated automatically and are frequently updated. Quality checks on data are not normally performed. It is possible for incorrect values to appear. Refer to information at About Latest Weather Observations and please check the disclaimer before using these data.